Terminal Aerodrome Forecast
Issued by NWS

Home | Current Version | Previous Version | Text Only | Print | Product List | Glossary On
Versions: 1 2 3 4 5 6 7 8 9 10 11 12 13 14 15 16 17 18 19
000
FTUS41 KLWX 252300
TAFMTN
TAF
KMTN 252320Z 2600/2624 00000KT P6SM BKN080
     FM260200 07006KT 3SM -RASN OVC050
     FM260500 07010KT 3SM -RASN OVC025
     FM260800 07011KT 1SM -SNRA OVC015
     FM261100 07012KT 1SM -SN OVC010
     FM261700 05012KT 2SM -SNRA OVC008
     FM262300 03013KT 2SM -SN OVC008
      AMD NOT SKED 2602/2612=

USA.gov is the U.S. government's official web portal to all federal, state and local government web resources and services.